Time;durP1;ratioP1;P1;durP2;ratioP2;P2;SDS_P1;SDS_P2;PMS_P1;PMS_P2;Temp;Humidity;BMP_temperature;BMP_pressure;BME280_temperature;BME280_humidity;BME280_pressure;Samples;Min_cycle;Max_cycle;Signal;HPM_P1;HPM_P2
2021/05/29 00:01:26;;;;;;;9.15;4.35;;;;;;;18.01;71.56;98881.03;1761745;79;20980;-44
2021/05/29 00:03:53;;;;;;;6.72;4.53;;;;;;;17.97;71.60;98879.70;1772596;79;21078;-44
2021/05/29 00:06:20;;;;;;;4.80;3.52;;;;;;;17.94;71.70;98877.03;1763163;79;21600;-44
2021/05/29 00:08:48;;;;;;;5.62;3.90;;;;;;;17.98;71.69;98876.36;1789871;79;21059;-44
2021/05/29 00:11:14;;;;;;;7.20;4.30;;;;;;;18.01;71.73;98879.03;1703807;82;21035;-43
2021/05/29 00:13:41;;;;;;;6.60;4.17;;;;;;;18.02;71.73;98872.36;1717519;82;20991;-44
2021/05/29 00:16:09;;;;;;;6.28;4.05;;;;;;;18.02;71.77;98867.47;1780044;80;21078;-44
2021/05/29 00:18:39;;;;;;;5.67;4.20;;;;;;;17.98;71.75;98869.51;1755835;79;21142;-44
2021/05/29 00:21:06;;;;;;;6.05;4.30;;;;;;;17.92;71.75;98858.25;1759291;79;21030;-44
2021/05/29 00:23:33;;;;;;;7.53;4.28;;;;;;;17.88;72.01;98858.14;1786593;79;21090;-44
2021/05/29 00:25:59;;;;;;;5.08;4.45;;;;;;;17.78;72.26;98863.41;1779424;79;21051;-44
2021/05/29 00:28:28;;;;;;;7.05;4.53;;;;;;;17.78;72.50;98864.00;1724755;82;21557;-44
2021/05/29 00:30:55;;;;;;;6.00;4.40;;;;;;;17.80;72.59;98860.25;1795130;79;20987;-44
2021/05/29 00:33:21;;;;;;;6.53;4.03;;;;;;;17.87;72.41;98855.98;1733932;80;21062;-44
2021/05/29 00:35:48;;;;;;;6.22;4.08;;;;;;;17.92;72.20;98847.87;1779598;80;21593;-44
2021/05/29 00:38:15;;;;;;;4.72;4.00;;;;;;;17.87;72.09;98845.61;1762252;79;21067;-44
2021/05/29 00:40:42;;;;;;;5.47;4.03;;;;;;;17.74;72.39;98851.73;1766186;80;21592;-44
2021/05/29 00:43:08;;;;;;;7.25;3.65;;;;;;;17.71;72.58;98853.17;1750931;80;21102;-44
2021/05/29 00:45:36;;;;;;;7.30;4.28;;;;;;;17.74;72.75;98855.06;1758703;79;21007;-44
2021/05/29 00:48:07;;;;;;;4.33;3.75;;;;;;;17.75;72.74;98861.51;1710923;82;20960;-44
2021/05/29 00:50:34;;;;;;;5.85;4.08;;;;;;;17.75;72.82;98862.88;1774631;79;21838;-44
2021/05/29 00:53:01;;;;;;;4.80;4.30;;;;;;;17.79;72.84;98864.95;1711344;82;21024;-44
2021/05/29 00:55:28;;;;;;;7.40;3.60;;;;;;;17.82;72.81;98859.22;1765535;79;21048;-44
2021/05/29 00:57:56;;;;;;;6.35;4.75;;;;;;;17.89;72.64;98848.72;1761809;79;21006;-44
2021/05/29 01:00:24;;;;;;;4.90;4.12;;;;;;;17.93;72.42;98848.05;1754829;79;21546;-44
2021/05/29 01:02:51;;;;;;;8.60;4.80;;;;;;;17.90;72.51;98852.42;1772723;79;21040;-44
2021/05/29 01:05:18;;;;;;;5.15;4.40;;;;;;;17.84;72.60;98851.36;1766772;79;20932;-44
2021/05/29 01:07:52;;;;;;;5.93;4.37;;;;;;;17.85;72.72;98856.25;1766868;79;20987;-44
2021/05/29 01:10:23;;;;;;;6.50;4.72;;;;;;;17.94;72.65;98849.61;1737982;80;21575;-44
2021/05/29 01:12:51;;;;;;;5.10;4.60;;;;;;;17.99;72.44;98846.38;1713805;82;21612;-44
2021/05/29 01:15:20;;;;;;;6.17;4.58;;;;;;;18.00;72.49;98844.59;1702180;81;20995;-44
2021/05/29 01:17:47;;;;;;;6.22;5.08;;;;;;;18.01;72.40;98842.00;1708165;81;21034;-43
2021/05/29 01:20:14;;;;;;;7.55;6.15;;;;;;;18.03;72.32;98838.85;1722117;83;21013;-44
2021/05/29 01:22:51;;;;;;;8.05;6.10;;;;;;;18.06;72.02;98839.37;1722768;81;21032;-43
2021/05/29 01:25:35;;;;;;;8.03;6.65;;;;;;;17.99;71.85;98838.92;1712068;81;21129;-44
2021/05/29 01:28:22;;;;;;;7.15;6.45;;;;;;;17.86;72.20;98838.61;1700726;81;20995;-44
2021/05/29 01:31:02;;;;;;;10.45;7.17;;;;;;;17.79;72.50;98834.80;1713291;83;21308;-44
2021/05/29 01:33:35;;;;;;;9.03;7.40;;;;;;;17.76;72.60;98838.39;1699321;83;28658;-44
2021/05/29 01:36:06;;;;;;;11.28;8.20;;;;;;;17.81;72.66;98833.76;1707065;81;21693;-44
2021/05/29 01:39:20;;;;;;;10.98;8.80;;;;;;;17.83;72.46;98829.83;1809890;78;22655;-42
2021/05/29 01:41:47;;;;;;;12.75;8.88;;;;;;;17.71;72.52;98828.50;1802099;78;21015;-43
2021/05/29 01:44:14;;;;;;;9.90;7.83;;;;;;;17.64;72.74;98822.54;1797390;78;21821;-43
2021/05/29 01:46:40;;;;;;;9.33;8.30;;;;;;;17.63;72.78;98827.06;1806490;79;21049;-43
2021/05/29 01:49:08;;;;;;;15.48;8.58;;;;;;;17.63;72.82;98827.84;1804131;79;20922;-43
2021/05/29 01:51:35;;;;;;;13.75;8.90;;;;;;;17.61;72.97;98825.35;1812194;78;21714;-43
2021/05/29 01:54:01;;;;;;;11.33;8.50;;;;;;;17.59;73.00;98820.28;1799870;78;20958;-43
2021/05/29 01:56:29;;;;;;;10.68;7.95;;;;;;;17.57;73.31;98825.36;1811228;78;21721;-43
2021/05/29 01:58:57;;;;;;;8.98;8.10;;;;;;;17.56;73.25;98823.06;1808614;79;20983;-43
2021/05/29 02:01:24;;;;;;;10.30;8.88;;;;;;;17.57;73.37;98819.88;1812945;78;21031;-43
2021/05/29 02:03:51;;;;;;;14.47;10.95;;;;;;;17.56;73.35;98816.98;1812102;78;21848;-43
2021/05/29 02:06:18;;;;;;;12.43;9.48;;;;;;;17.55;73.22;98808.58;1808948;78;21002;-43
2021/05/29 02:08:47;;;;;;;11.40;9.33;;;;;;;17.50;73.37;98814.55;1793678;79;21528;-43
2021/05/29 02:11:14;;;;;;;12.73;10.35;;;;;;;17.53;73.30;98821.14;1813343;78;20969;-43
2021/05/29 02:13:44;;;;;;;12.35;10.35;;;;;;;17.54;73.35;98821.33;1804929;77;21021;-43
2021/05/29 02:16:11;;;;;;;14.98;9.98;;;;;;;17.54;73.49;98823.47;1814611;78;21013;-43
2021/05/29 02:18:40;;;;;;;13.85;10.15;;;;;;;17.56;73.49;98825.20;1810549;78;20986;-43
2021/05/29 02:21:09;;;;;;;14.43;10.10;;;;;;;17.55;73.45;98818.77;1812634;78;21459;-43
2021/05/29 02:23:41;;;;;;;16.85;11.40;;;;;;;17.52;73.55;98820.39;1801465;78;21062;-43
2021/05/29 02:26:12;;;;;;;14.53;11.00;;;;;;;17.52;73.61;98818.25;1791755;78;21212;-43
2021/05/29 02:28:41;;;;;;;21.00;11.05;;;;;;;17.44;73.75;98816.20;1798074;78;21571;-43
2021/05/29 02:31:09;;;;;;;14.55;10.68;;;;;;;17.41;73.95;98815.69;1788475;79;21037;-43
2021/05/29 02:33:37;;;;;;;14.30;10.10;;;;;;;17.42;74.05;98819.20;1810278;78;21651;-43
2021/05/29 02:36:05;;;;;;;17.45;11.08;;;;;;;17.39;74.01;98819.42;1808970;78;20990;-43
2021/05/29 02:38:34;;;;;;;13.53;10.82;;;;;;;17.38;74.23;98823.35;1801452;78;20983;-43
2021/05/29 02:41:03;;;;;;;;;;;;;;;17.36;74.24;98821.64;1792531;79;21644;-43
2021/05/29 02:43:30;;;;;;;14.80;9.25;;;;;;;17.37;74.25;98825.94;1784111;79;20214;-43
2021/05/29 02:45:56;;;;;;;11.40;9.30;;;;;;;17.36;74.42;98822.42;1794329;79;21046;-43
2021/05/29 02:48:25;;;;;;;10.90;8.85;;;;;;;17.42;74.39;98816.46;1795016;79;21054;-43
2021/05/29 02:50:51;;;;;;;13.03;7.72;;;;;;;17.42;74.32;98815.88;1800273;79;21625;-43
2021/05/29 02:53:18;;;;;;;9.15;7.53;;;;;;;17.38;74.08;98824.12;1786136;79;20928;-43
2021/05/29 02:55:46;;;;;;;10.98;6.80;;;;;;;17.29;74.18;98823.90;1793184;79;21016;-43
2021/05/29 02:58:13;;;;;;;10.40;6.60;;;;;;;17.34;74.31;98818.53;1775396;79;21155;-43
2021/05/29 03:00:44;;;;;;;8.90;5.85;;;;;;;17.40;74.27;98814.13;1795100;79;21034;-43
2021/05/29 03:03:11;;;;;;;6.70;5.10;;;;;;;17.41;74.08;98820.39;1795443;79;20919;-43
2021/05/29 03:05:42;;;;;;;5.25;3.72;;;;;;;17.40;74.04;98830.58;1794820;79;20955;-43
2021/05/29 03:08:10;;;;;;;6.50;2.60;;;;;;;17.37;74.00;98822.61;1784989;79;21007;-43
2021/05/29 03:10:40;;;;;;;4.37;2.40;;;;;;;17.30;73.72;98828.19;1784482;79;21147;-43
2021/05/29 03:13:08;;;;;;;3.30;1.90;;;;;;;17.23;73.95;98826.18;1780304;79;20987;-43
2021/05/29 03:15:35;;;;;;;4.17;1.67;;;;;;;17.12;73.87;98834.56;1794187;79;21655;-43
2021/05/29 03:18:03;;;;;;;2.80;1.47;;;;;;;17.02;74.12;98825.92;1787247;79;21556;-43
2021/05/29 03:20:30;;;;;;;3.37;1.70;;;;;;;17.02;74.11;98830.02;1781970;79;20974;-43
2021/05/29 03:22:57;;;;;;;1.90;1.40;;;;;;;17.01;74.12;98827.69;1777910;79;20996;-43
2021/05/29 03:25:24;;;;;;;1.60;1.40;;;;;;;16.93;74.12;98831.92;1774576;79;20986;-43
2021/05/29 03:27:53;;;;;;;1.67;1.10;;;;;;;16.90;74.20;98835.47;1800154;79;21003;-43
2021/05/29 03:30:25;;;;;;;1.52;1.42;;;;;;;16.86;74.27;98837.49;1802944;79;21520;-43
2021/05/29 03:32:52;;;;;;;2.17;1.20;;;;;;;16.82;74.06;98843.63;1795137;79;21042;-43
2021/05/29 03:35:19;;;;;;;1.10;1.02;;;;;;;16.77;74.06;98834.50;1788030;79;21133;-43
2021/05/29 03:37:45;;;;;;;0.93;0.93;;;;;;;16.71;74.14;98838.88;1791544;79;21042;-44
2021/05/29 03:40:13;;;;;;;1.25;0.90;;;;;;;16.64;74.41;98847.20;1800633;78;21003;-43
2021/05/29 03:42:40;;;;;;;2.33;1.37;;;;;;;16.63;74.46;98844.88;1800408;78;21078;-43
2021/05/29 03:45:12;;;;;;;1.00;1.00;;;;;;;16.62;74.67;98852.31;1804611;78;21097;-43
2021/05/29 03:47:43;;;;;;;1.30;0.93;;;;;;;16.59;74.60;98842.20;1801566;78;21117;-43
2021/05/29 03:50:12;;;;;;;1.37;0.98;;;;;;;16.53;74.76;98842.44;1799103;78;21086;-43
2021/05/29 03:52:41;;;;;;;2.67;1.00;;;;;;;16.51;75.00;98848.91;1800960;78;20959;-43
2021/05/29 03:55:09;;;;;;;3.17;1.20;;;;;;;16.56;74.84;98851.18;1802310;78;21332;-43
2021/05/29 03:57:36;;;;;;;1.10;1.00;;;;;;;16.64;74.89;98855.42;1800746;78;21066;-43
2021/05/29 04:00:06;;;;;;;4.92;1.52;;;;;;;16.66;74.76;98857.13;1802336;77;21928;-43
2021/05/29 04:02:35;;;;;;;1.40;1.00;;;;;;;16.66;74.78;98863.98;1805875;77;20962;-43
2021/05/29 04:05:01;;;;;;;1.47;1.20;;;;;;;16.65;74.77;98869.30;1800073;78;20990;-43
2021/05/29 04:07:28;;;;;;;1.47;1.00;;;;;;;16.69;74.81;98867.88;1803825;78;21611;-43
2021/05/29 04:09:55;;;;;;;1.90;1.20;;;;;;;16.71;74.67;98862.74;1803608;78;21101;-43
2021/05/29 04:12:21;;;;;;;2.35;1.05;;;;;;;16.70;74.34;98868.05;1801665;78;21503;-43
2021/05/29 04:14:49;;;;;;;2.27;1.20;;;;;;;16.68;74.40;98862.98;1803837;78;21006;-43
2021/05/29 04:17:16;;;;;;;2.58;1.27;;;;;;;16.71;74.20;98863.52;1802715;77;21032;-43
2021/05/29 04:19:43;;;;;;;1.77;1.30;;;;;;;16.71;73.95;98874.47;1803315;78;21738;-43
2021/05/29 04:22:10;;;;;;;1.35;0.95;;;;;;;16.62;74.16;98881.05;1800939;78;21113;-43
2021/05/29 04:24:37;;;;;;;1.70;1.10;;;;;;;16.57;74.31;98884.20;1802609;78;21090;-43
2021/05/29 04:27:06;;;;;;;1.00;0.93;;;;;;;16.61;74.24;98878.71;1803542;78;21022;-43
2021/05/29 04:29:33;;;;;;;0.98;0.90;;;;;;;16.61;73.93;98880.08;1802921;78;21073;-43
2021/05/29 04:32:00;;;;;;;2.37;1.00;;;;;;;16.55;73.98;98872.91;1802387;78;21453;-43
2021/05/29 04:34:27;;;;;;;1.35;0.90;;;;;;;16.51;73.85;98872.16;1807889;78;21053;-43
2021/05/29 04:36:54;;;;;;;1.80;0.80;;;;;;;16.51;73.98;98874.89;1786286;79;21060;-43
2021/05/29 04:39:20;;;;;;;0.82;0.82;;;;;;;16.53;73.92;98876.64;1803112;78;21557;-43
2021/05/29 04:41:47;;;;;;;1.15;0.80;;;;;;;16.50;73.62;98880.21;1802114;78;21611;-43
2021/05/29 04:44:14;;;;;;;0.80;0.80;;;;;;;16.37;73.67;98874.48;1799524;78;21108;-43
2021/05/29 04:46:49;;;;;;;1.20;1.10;;;;;;;16.27;74.06;98877.34;1799810;78;21129;-43
2021/05/29 04:49:10;;;;;;;3.02;1.05;;;;;;;16.22;74.24;98877.80;1802860;79;21090;-43
2021/05/29 04:51:36;;;;;;;1.35;1.10;;;;;;;16.19;74.38;98879.98;1809017;78;21086;-43
2021/05/29 04:54:04;;;;;;;1.80;1.15;;;;;;;16.18;74.38;98871.00;1809048;78;21097;-43
2021/05/29 04:56:31;;;;;;;3.10;1.15;;;;;;;16.17;74.27;98873.55;1802986;78;22476;-43
2021/05/29 04:58:58;;;;;;;1.70;1.10;;;;;;;16.20;74.40;98879.59;1806040;79;21580;-43
2021/05/29 05:01:29;;;;;;;1.12;1.00;;;;;;;16.22;73.97;98877.20;1801510;79;21022;-43
2021/05/29 05:03:54;;;;;;;1.10;1.00;;;;;;;16.18;73.90;98877.84;1803954;79;20970;-43
2021/05/29 05:06:21;;;;;;;1.80;1.07;;;;;;;16.15;74.14;98887.46;1802148;79;20932;-43
2021/05/29 05:08:48;;;;;;;3.27;1.50;;;;;;;16.21;73.90;98880.37;1813390;78;21077;-43
2021/05/29 05:11:16;;;;;;;1.92;1.40;;;;;;;16.22;73.83;98878.57;1800824;78;21144;-43
2021/05/29 05:13:45;;;;;;;3.83;1.20;;;;;;;15.93;74.08;98834.95;1802630;78;21020;-43
2021/05/29 05:16:13;;;;;;;1.52;1.20;;;;;;;16.20;73.68;98880.18;1802972;78;21089;-43
2021/05/29 05:18:40;;;;;;;2.25;1.32;;;;;;;16.25;73.82;98881.09;1768686;79;21022;-43
2021/05/29 05:21:08;;;;;;;2.27;1.40;;;;;;;16.29;73.65;98882.61;1806174;78;21082;-43
2021/05/29 05:23:35;;;;;;;2.67;1.20;;;;;;;16.30;73.42;98886.90;1803949;78;22082;-43
2021/05/29 05:26:02;;;;;;;1.35;1.17;;;;;;;16.29;72.98;98880.45;1800614;79;21843;-43
2021/05/29 05:28:29;;;;;;;1.82;1.35;;;;;;;16.28;72.93;98881.64;1800710;78;20954;-43
2021/05/29 05:30:58;;;;;;;1.65;1.47;;;;;;;16.24;73.25;98883.64;1797552;78;20971;-43
2021/05/29 05:33:25;;;;;;;1.75;1.30;;;;;;;16.22;73.22;98884.62;1788478;78;21029;-43
2021/05/29 05:35:53;;;;;;;3.30;1.65;;;;;;;16.19;73.36;98895.03;1787428;79;21070;-43
2021/05/29 05:38:20;;;;;;;1.40;1.30;;;;;;;16.26;73.19;98894.96;1788051;78;21072;-43
2021/05/29 05:40:47;;;;;;;1.77;1.50;;;;;;;16.27;73.03;98901.38;1800453;79;21600;-43
2021/05/29 05:43:14;;;;;;;5.25;1.65;;;;;;;16.26;73.10;98912.16;1802239;79;20982;-43
2021/05/29 05:45:41;;;;;;;4.05;1.70;;;;;;;16.28;73.15;98917.97;1803962;79;21008;-43
2021/05/29 05:48:08;;;;;;;3.70;2.08;;;;;;;16.34;72.79;98922.41;1793292;79;21098;-43
2021/05/29 05:50:35;;;;;;;2.17;1.70;;;;;;;16.29;72.07;98918.75;1786696;79;21118;-43
2021/05/29 05:53:03;;;;;;;3.60;1.60;;;;;;;16.20;72.33;98922.57;1789790;79;21082;-43
2021/05/29 05:55:31;;;;;;;1.35;1.25;;;;;;;16.14;72.45;98923.60;1781081;79;20999;-43
2021/05/29 05:57:58;;;;;;;3.30;2.30;;;;;;;16.16;72.21;98924.57;1780802;79;20983;-43
2021/05/29 06:00:25;;;;;;;4.20;2.15;;;;;;;16.22;72.45;98929.76;1795288;79;21015;-43
2021/05/29 06:02:51;;;;;;;3.67;1.62;;;;;;;16.25;72.43;98936.58;1793962;79;21083;-43
2021/05/29 06:05:18;;;;;;;1.65;1.40;;;;;;;16.26;72.26;98938.73;1790509;79;21549;-43
2021/05/29 06:07:44;;;;;;;2.87;1.55;;;;;;;16.31;72.31;98938.28;1789228;78;21011;-43
2021/05/29 06:10:12;;;;;;;2.65;1.70;;;;;;;16.38;72.02;98936.82;1788617;79;21076;-43
2021/05/29 06:12:43;;;;;;;1.55;1.45;;;;;;;16.41;72.25;98941.50;1784417;79;20943;-43
2021/05/29 06:18:11;;;;;;;2.35;1.50;;;;;;;16.45;71.84;98943.00;1790840;79;21467;-43
2021/05/29 06:20:32;;;;;;;3.85;1.75;;;;;;;16.49;71.91;98941.00;1795036;79;21055;-43
2021/05/29 06:22:59;;;;;;;1.70;1.60;;;;;;;16.54;71.47;98938.41;1789126;79;22191;-43
2021/05/29 06:25:26;;;;;;;2.77;1.87;;;;;;;16.54;71.48;98942.51;1788141;79;21014;-43
2021/05/29 06:27:52;;;;;;;3.77;1.72;;;;;;;16.58;71.65;98943.27;1785892;79;21085;-43
2021/05/29 06:30:20;;;;;;;2.98;1.75;;;;;;;16.67;71.69;98941.39;1788576;79;21042;-43
2021/05/29 06:32:47;;;;;;;2.55;1.90;;;;;;;16.70;71.41;98949.55;1788834;79;21003;-43
2021/05/29 06:35:14;;;;;;;2.37;1.50;;;;;;;16.71;71.59;98950.33;1791096;79;21718;-43
2021/05/29 06:37:41;;;;;;;1.87;1.70;;;;;;;16.70;71.57;98955.03;1791504;79;21653;-43
2021/05/29 06:40:09;;;;;;;2.75;1.85;;;;;;;16.78;71.32;98952.41;1777787;79;21113;-43
2021/05/29 06:42:36;;;;;;;2.35;1.90;;;;;;;16.89;71.13;98959.87;1765327;80;20977;-43
2021/05/29 06:45:05;;;;;;;2.22;1.60;;;;;;;17.05;71.24;98961.23;1763408;80;21836;-43
2021/05/29 06:47:31;;;;;;;2.10;1.90;;;;;;;17.14;71.05;98959.53;1765573;81;21095;-43
2021/05/29 06:49:58;;;;;;;2.72;2.00;;;;;;;17.16;70.55;98960.50;1765927;79;21572;-43
2021/05/29 06:52:28;;;;;;;2.00;1.70;;;;;;;17.19;70.62;98960.44;1729971;82;21098;-43
2021/05/29 06:55:05;;;;;;;3.22;2.00;;;;;;;17.25;70.19;98956.05;1761841;80;21032;-43
2021/05/29 07:00:12;;;;;;;3.70;1.80;;;;;;;17.30;69.51;98961.66;1758310;79;21101;-43
2021/05/29 07:02:38;;;;;;;3.72;1.90;;;;;;;17.30;69.82;98954.81;1767521;81;20989;-43
2021/05/29 07:05:09;;;;;;;3.55;1.85;;;;;;;17.34;69.76;98959.05;1769865;81;21141;-43
2021/05/29 07:07:37;;;;;;;3.77;1.80;;;;;;;17.44;69.50;98957.93;1758488;81;21077;-43
2021/05/29 07:10:08;;;;;;;2.47;1.70;;;;;;;17.46;69.43;98954.97;1771563;81;21651;-43
2021/05/29 07:12:35;;;;;;;2.72;1.60;;;;;;;17.49;69.85;98950.02;1765328;81;21110;-43
2021/05/29 07:15:06;;;;;;;2.77;1.72;;;;;;;17.55;69.32;98952.48;1769755;81;21637;-43
2021/05/29 07:17:38;;;;;;;2.37;1.70;;;;;;;17.59;68.90;98953.81;1736699;80;21729;-43
2021/05/29 07:20:05;;;;;;;6.85;1.87;;;;;;;17.72;69.08;98955.55;1794638;79;21588;-42
2021/05/29 07:22:31;;;;;;;4.33;2.42;;;;;;;17.79;68.12;98955.44;1781876;79;22097;-43
2021/05/29 07:24:58;;;;;;;3.65;1.92;;;;;;;17.80;67.77;98951.52;1791334;79;21047;-43
2021/05/29 07:27:24;;;;;;;4.85;2.30;;;;;;;17.80;67.64;98958.37;1802229;79;21023;-43
2021/05/29 07:29:52;;;;;;;2.33;2.02;;;;;;;17.77;67.34;98959.19;1800053;79;21098;-43
2021/05/29 07:32:19;;;;;;;2.42;1.70;;;;;;;17.78;67.08;98961.33;1793210;80;20983;-43
2021/05/29 07:34:46;;;;;;;3.62;2.40;;;;;;;17.79;67.14;98952.70;1792266;79;21082;-43
2021/05/29 07:37:12;;;;;;;2.00;1.80;;;;;;;17.84;67.65;98958.89;1791182;79;21642;-43
2021/05/29 07:39:39;;;;;;;3.30;2.08;;;;;;;17.90;66.91;98955.27;1795196;77;21071;-43
2021/05/29 07:42:07;;;;;;;2.05;1.85;;;;;;;17.90;66.14;98962.13;1795435;79;21131;-43
2021/05/29 07:44:34;;;;;;;5.00;2.10;;;;;;;17.88;65.84;98955.48;1734506;81;20975;-43
2021/05/29 07:47:01;;;;;;;4.22;2.55;;;;;;;17.89;66.44;98955.67;1722019;81;21109;-43
2021/05/29 07:49:29;;;;;;;3.27;2.40;;;;;;;17.92;66.70;98951.49;1753492;81;21533;-42
2021/05/29 07:51:56;;;;;;;2.33;1.90;;;;;;;17.96;66.90;98952.83;1786100;79;21029;-43
2021/05/29 07:54:23;;;;;;;2.45;2.22;;;;;;;17.96;66.38;98954.20;1805777;79;21134;-43
2021/05/29 07:56:50;;;;;;;3.75;2.00;;;;;;;17.92;66.72;98956.20;1805073;79;21109;-42
2021/05/29 07:59:17;;;;;;;3.37;2.00;;;;;;;17.90;66.99;98966.83;1786811;79;20978;-43
2021/05/29 08:01:45;;;;;;;5.90;2.08;;;;;;;17.93;67.39;98955.79;1784389;79;20944;-43
2021/05/29 08:04:14;;;;;;;3.83;2.22;;;;;;;17.96;66.84;98963.80;1797084;79;21043;-43
2021/05/29 08:06:40;;;;;;;2.98;2.35;;;;;;;17.97;67.29;98957.87;1703173;82;21069;-43
2021/05/29 08:09:07;;;;;;;3.33;2.40;;;;;;;18.04;66.74;98959.73;1740538;81;21879;-43
2021/05/29 08:11:40;;;;;;;3.22;2.20;;;;;;;18.12;66.11;98959.17;1758193;81;21043;-43
2021/05/29 08:14:10;;;;;;;3.92;2.02;;;;;;;18.19;65.41;98965.14;1800736;79;21006;-43
2021/05/29 08:16:39;;;;;;;2.45;2.15;;;;;;;18.24;65.15;98966.03;1789667;79;21078;-43
2021/05/29 08:19:08;;;;;;;7.53;3.35;;;;;;;18.29;65.36;98966.91;1783688;79;21684;-43
2021/05/29 08:21:36;;;;;;;4.33;2.40;;;;;;;18.34;64.59;98963.69;1780011;79;20940;-43
2021/05/29 08:24:05;;;;;;;3.05;2.20;;;;;;;18.37;64.16;98962.83;1793244;79;21539;-43
2021/05/29 08:26:32;;;;;;;2.60;2.17;;;;;;;18.42;64.83;98963.72;1737235;82;21027;-43
2021/05/29 08:28:58;;;;;;;2.55;2.35;;;;;;;18.48;64.67;98968.12;1738330;81;21059;-43
2021/05/29 08:31:25;;;;;;;3.58;2.50;;;;;;;18.50;64.02;98964.34;1753842;81;21071;-43
2021/05/29 08:33:52;;;;;;;4.45;2.27;;;;;;;18.46;64.58;98966.39;1738016;81;21090;-43
2021/05/29 08:36:18;;;;;;;2.15;1.90;;;;;;;18.47;64.91;98965.97;1745002;81;20960;-43
2021/05/29 08:38:46;;;;;;;2.35;2.08;;;;;;;18.50;64.79;98976.10;1796906;79;21055;-43
2021/05/29 08:41:12;;;;;;;3.20;2.20;;;;;;;18.55;63.88;98968.00;1794969;78;21070;-43
2021/05/29 08:43:39;;;;;;;2.77;2.30;;;;;;;18.57;63.77;98960.91;1811592;79;21059;-43
2021/05/29 08:46:06;;;;;;;3.25;2.20;;;;;;;18.63;64.10;98959.23;1761815;79;21082;-43
2021/05/29 08:48:34;;;;;;;2.27;2.08;;;;;;;18.68;64.04;98968.16;1809365;79;21003;-43
2021/05/29 08:51:13;;;;;;;4.00;2.60;;;;;;;18.75;63.33;98968.78;1829035;77;20991;-43
2021/05/29 08:53:47;;;;;;;2.73;2.33;;;;;;;18.79;63.35;98965.95;1812647;79;21040;-43
2021/05/29 08:56:15;;;;;;;4.17;2.50;;;;;;;18.79;63.17;98972.81;1799834;77;21045;-43
2021/05/29 08:58:43;;;;;;;2.95;2.65;;;;;;;18.81;63.03;98971.21;1807984;79;21577;-43
2021/05/29 09:01:10;;;;;;;4.92;2.60;;;;;;;18.84;62.50;98967.60;1804513;77;21019;-43
2021/05/29 09:04:04;;;;;;;3.60;2.45;;;;;;;18.89;62.41;98969.85;1812029;79;20951;-43
2021/05/29 09:06:36;;;;;;;4.28;2.17;;;;;;;18.85;61.39;98967.01;1800480;79;21009;-43
2021/05/29 09:09:07;;;;;;;2.47;1.72;;;;;;;18.83;61.76;98976.28;1806180;79;21604;-43
2021/05/29 09:11:49;;;;;;;2.80;2.00;;;;;;;18.86;61.11;98969.94;1805584;77;21038;-43
2021/05/29 09:14:28;;;;;;;2.25;2.05;;;;;;;18.89;61.31;98969.08;1790227;79;21922;-43
2021/05/29 09:17:15;;;;;;;4.58;2.15;;;;;;;18.94;61.05;98969.95;1804262;77;21059;-43
2021/05/29 09:20:05;;;;;;;3.77;2.10;;;;;;;18.98;61.47;98978.29;1809014;77;21024;-43
2021/05/29 09:22:40;;;;;;;;;;;;;;;19.03;61.09;98970.15;1807569;77;21054;-43
2021/05/29 09:25:13;;;;;;;2.95;2.00;;;;;;;19.04;60.71;98982.69;1802627;77;20161;-43
2021/05/29 09:27:59;;;;;;;2.12;1.92;;;;;;;18.93;60.97;98981.53;1777596;79;21087;-43
2021/05/29 09:30:49;;;;;;;3.98;1.90;;;;;;;18.92;59.85;98973.73;1806836;77;21010;-43
2021/05/29 09:33:26;;;;;;;2.10;1.80;;;;;;;18.95;59.50;98982.50;1803982;79;22322;-43
2021/05/29 09:36:10;;;;;;;5.20;1.80;;;;;;;18.92;59.44;98976.48;1806249;77;21496;-43
2021/05/29 09:38:47;;;;;;;2.67;1.62;;;;;;;18.95;60.19;98972.87;1772364;79;21006;-43
2021/05/29 09:41:25;;;;;;;2.65;2.00;;;;;;;19.09;59.66;98972.58;1798164;78;20964;-43
2021/05/29 09:43:55;;;;;;;3.52;2.00;;;;;;;19.21;58.85;98974.68;1828275;77;22123;-43
2021/05/29 09:46:23;;;;;;;3.30;2.10;;;;;;;19.28;57.97;98969.01;1812098;77;20944;-43
2021/05/29 09:49:00;;;;;;;4.12;2.42;;;;;;;19.30;58.69;98976.23;1822711;77;21063;-43
2021/05/29 09:51:31;;;;;;;3.65;2.65;;;;;;;19.34;60.02;98974.18;1840274;77;20995;-43
2021/05/29 09:54:07;;;;;;;2.47;1.98;;;;;;;19.41;60.84;98983.62;1834456;77;21525;-43
2021/05/29 09:56:37;;;;;;;2.55;2.12;;;;;;;19.50;60.30;98985.23;1819739;78;21023;-43
2021/05/29 09:59:13;;;;;;;2.52;2.33;;;;;;;19.61;59.49;98991.84;1815845;77;21038;-43
2021/05/29 10:01:51;;;;;;;2.70;2.27;;;;;;;19.65;59.07;98991.77;1805101;77;21028;-43
2021/05/29 10:04:37;;;;;;;4.62;2.50;;;;;;;19.73;59.49;99000.02;1827731;77;21569;-44
2021/05/29 10:07:12;;;;;;;5.87;2.62;;;;;;;19.80;58.96;98997.86;1808977;78;21565;-41
2021/05/29 10:09:44;;;;;;;3.00;2.72;;;;;;;19.90;59.18;99000.17;1828090;78;21948;-41
2021/05/29 10:12:11;;;;;;;3.83;2.77;;;;;;;20.01;59.37;98994.41;1824604;77;21050;-42
2021/05/29 10:14:39;;;;;;;3.05;2.35;;;;;;;20.10;58.69;98996.73;1812752;77;21049;-41
2021/05/29 10:17:08;;;;;;;3.35;2.80;;;;;;;20.13;58.09;98995.10;1806788;77;20924;-41
2021/05/29 10:19:38;;;;;;;3.72;2.67;;;;;;;20.06;57.97;99001.55;1823313;77;20979;-40
2021/05/29 10:22:12;;;;;;;4.28;2.75;;;;;;;19.96;58.99;99006.12;1806053;77;21020;-41
2021/05/29 10:24:39;;;;;;;4.50;3.05;;;;;;;19.84;59.63;99006.05;1811107;78;21105;-41
2021/05/29 10:27:24;;;;;;;5.97;2.47;;;;;;;19.72;60.30;99003.97;1829684;77;21050;-42
2021/05/29 10:29:52;;;;;;;3.20;2.40;;;;;;;19.68;61.21;99007.41;1822993;77;20948;-42
2021/05/29 10:32:20;;;;;;;3.98;2.27;;;;;;;19.67;60.33;99005.25;1836970;78;20936;-41
2021/05/29 10:34:54;;;;;;;3.37;2.42;;;;;;;19.60;59.83;99007.41;1829310;77;21139;-41
2021/05/29 10:37:43;;;;;;;2.52;2.25;;;;;;;19.51;58.95;99006.00;1823216;77;21042;-41
2021/05/29 10:40:24;;;;;;;3.17;2.65;;;;;;;19.41;59.18;99002.12;1819869;77;21140;-41
2021/05/29 10:43:22;;;;;;;3.10;2.40;;;;;;;19.32;59.91;99006.80;1841173;77;21616;-41
2021/05/29 10:45:58;;;;;;;4.72;2.30;;;;;;;19.24;59.30;99008.17;1802533;77;20956;-41
2021/05/29 10:48:26;;;;;;;3.62;2.55;;;;;;;19.17;59.59;99011.05;1818374;77;20984;-41
2021/05/29 10:51:03;;;;;;;2.95;2.47;;;;;;;19.13;59.19;99008.98;1791095;77;21102;-41
2021/05/29 10:53:53;;;;;;;3.08;2.60;;;;;;;19.09;59.73;99013.79;1791297;77;21064;-42
2021/05/29 10:56:27;;;;;;;2.60;2.40;;;;;;;19.06;59.80;99011.30;1787646;78;20992;-41
2021/05/29 10:59:18;;;;;;;3.60;2.33;;;;;;;19.04;60.83;99006.05;1806233;78;21122;-41
2021/05/29 11:01:50;;;;;;;3.45;2.22;;;;;;;19.09;61.35;99008.30;1800529;78;21935;-41
2021/05/29 11:04:24;;;;;;;2.77;2.37;;;;;;;19.16;61.03;99008.75;1810038;78;21137;-41
2021/05/29 11:07:00;;;;;;;3.33;2.30;;;;;;;19.17;59.97;99005.56;1799900;78;21438;-41
2021/05/29 11:09:53;;;;;;;4.03;2.33;;;;;;;19.19;60.44;99010.05;1764644;79;20979;-42
2021/05/29 11:12:21;;;;;;;2.35;2.15;;;;;;;19.28;59.79;99006.11;1790327;77;20952;-41
2021/05/29 11:14:52;;;;;;;3.98;2.25;;;;;;;19.35;59.94;99007.34;1802291;77;20960;-41
2021/05/29 11:17:25;;;;;;;4.72;2.30;;;;;;;19.45;59.86;99008.33;1790352;78;21067;-41
2021/05/29 11:20:17;;;;;;;5.37;2.30;;;;;;;19.52;59.16;99003.44;1784339;78;21111;-41
2021/05/29 11:22:50;;;;;;;3.35;2.17;;;;;;;19.61;58.10;99000.69;1808867;79;20957;-42
2021/05/29 11:25:21;;;;;;;2.37;2.12;;;;;;;19.63;57.91;98996.92;1773506;80;20993;-42
2021/05/29 11:27:49;;;;;;;4.03;2.20;;;;;;;19.64;57.48;99008.09;1794674;78;20947;-42
2021/05/29 11:30:33;;;;;;;3.52;2.30;;;;;;;19.63;57.72;98998.30;1793204;80;21022;-42
2021/05/29 11:35:32;;;;;;;2.95;2.37;;;;;;;19.70;57.86;98996.16;1803371;78;20956;-42
2021/05/29 11:38:31;;;;;;;2.83;2.30;;;;;;;19.82;58.18;98997.44;1805740;77;20986;-42
2021/05/29 11:41:12;;;;;;;2.20;2.00;;;;;;;20.00;57.83;98990.89;1785838;77;20988;-42
2021/05/29 11:43:53;;;;;;;2.20;1.85;;;;;;;20.21;55.94;98996.45;1818591;77;21000;-41
2021/05/29 11:46:27;;;;;;;3.05;2.37;;;;;;;20.57;55.81;98994.95;1818513;77;22135;-41
2021/05/29 11:49:00;;;;;;;2.20;2.00;;;;;;;20.90;55.16;98994.99;1821313;77;21047;-41
2021/05/29 11:51:34;;;;;;;3.60;1.95;;;;;;;21.23;53.77;98997.77;1823095;77;21058;-41
2021/05/29 11:54:14;;;;;;;3.65;2.17;;;;;;;21.43;52.99;98991.28;1820218;77;21055;-41